createdAt,value
2018-12-19T00:01:53.072Z,9.60
2018-12-19T00:04:23.872Z,9.60
2018-12-19T00:06:54.732Z,9.60
2018-12-19T00:09:25.572Z,9.60
2018-12-19T00:11:54.502Z,9.60
2018-12-19T00:14:23.380Z,9.60
2018-12-19T00:16:52.270Z,9.60
2018-12-19T00:19:21.134Z,9.60
2018-12-19T00:21:49.999Z,9.60
2018-12-19T00:24:18.873Z,8.80
2018-12-19T00:26:49.694Z,9.60
2018-12-19T00:29:20.504Z,9.60
2018-12-19T00:31:51.348Z,9.50
2018-12-19T00:34:22.186Z,9.50
2018-12-19T00:36:51.050Z,9.50
2018-12-19T00:39:20.457Z,9.50
2018-12-19T00:41:49.341Z,9.50
2018-12-19T00:44:18.215Z,9.60
2018-12-19T00:46:47.078Z,9.50
2018-12-19T00:49:15.915Z,9.50
2018-12-19T00:51:44.741Z,9.50
2018-12-19T00:54:13.576Z,9.50
2018-12-19T00:56:42.444Z,9.50
2018-12-19T00:59:11.292Z,9.50
2018-12-19T01:01:40.137Z,9.50
2018-12-19T01:04:08.985Z,9.50
2018-12-19T01:06:38.017Z,9.50
2018-12-19T01:09:08.188Z,9.50
2018-12-19T01:11:39.000Z,9.50
2018-12-19T01:14:07.831Z,9.50
2018-12-19T01:16:36.677Z,9.50
2018-12-19T01:19:05.551Z,9.50
2018-12-19T01:21:34.393Z,9.50
2018-12-19T01:24:03.271Z,9.50
2018-12-19T01:26:32.105Z,9.50
2018-12-19T01:29:00.948Z,9.50
2018-12-19T01:31:29.820Z,9.50
2018-12-19T01:33:58.659Z,9.50
2018-12-19T01:36:28.140Z,9.50
2018-12-19T01:38:57.002Z,9.40
2018-12-19T01:41:25.869Z,9.40
2018-12-19T01:43:54.707Z,9.40
2018-12-19T01:46:23.547Z,9.50
2018-12-19T01:48:52.411Z,9.60
2018-12-19T01:51:21.956Z,9.70
2018-12-19T01:53:50.805Z,9.80
2018-12-19T01:56:19.648Z,9.90
2018-12-19T01:58:48.488Z,9.90
2018-12-19T02:01:17.704Z,9.90
2018-12-19T02:03:46.552Z,9.80
2018-12-19T02:06:15.416Z,9.80
2018-12-19T02:08:44.250Z,9.80
2018-12-19T02:11:13.091Z,9.70
2018-12-19T02:13:41.972Z,9.70
2018-12-19T02:16:10.817Z,9.70
2018-12-19T02:18:39.646Z,9.70
2018-12-19T02:21:08.504Z,9.70
2018-12-19T02:23:37.356Z,9.60
2018-12-19T02:26:06.228Z,9.60
2018-12-19T02:28:37.020Z,9.60
2018-12-19T02:31:07.100Z,9.60
2018-12-19T02:33:35.939Z,9.60
2018-12-19T02:36:04.828Z,9.60
2018-12-19T02:38:33.705Z,9.60
2018-12-19T02:41:02.549Z,9.60
2018-12-19T02:43:33.146Z,9.60
2018-12-19T02:46:01.999Z,9.60
2018-12-19T02:48:30.856Z,9.60
2018-12-19T02:50:59.721Z,9.60
2018-12-19T02:53:28.604Z,9.60
2018-12-19T02:55:57.465Z,9.60
2018-12-19T02:58:26.299Z,9.50
2018-12-19T03:00:55.154Z,9.60
2018-12-19T03:03:24.095Z,9.50
2018-12-19T03:05:52.947Z,9.50
2018-12-19T03:08:21.803Z,9.50
2018-12-19T03:10:50.741Z,9.50
2018-12-19T03:13:19.590Z,9.50
2018-12-19T03:15:48.428Z,9.50
2018-12-19T03:18:17.300Z,9.50
2018-12-19T03:20:46.144Z,9.50
2018-12-19T03:23:14.989Z,9.50
2018-12-19T03:25:43.827Z,9.50
2018-12-19T03:28:12.676Z,9.50
2018-12-19T03:30:41.524Z,9.50
2018-12-19T03:33:12.543Z,9.50
2018-12-19T03:35:41.468Z,9.50
2018-12-19T03:38:14.560Z,9.50
2018-12-19T03:53:42.923Z,9.50
2018-12-19T03:56:11.786Z,9.50
2018-12-19T03:58:40.655Z,9.80
2018-12-19T04:01:09.511Z,9.80
2018-12-19T04:03:38.359Z,9.80
2018-12-19T04:06:07.191Z,9.80
2018-12-19T04:08:36.059Z,9.80
2018-12-19T04:11:05.410Z,9.80
2018-12-19T04:13:34.274Z,9.80
2018-12-19T04:16:03.147Z,9.70
2018-12-19T04:18:31.982Z,9.70
2018-12-19T04:21:00.836Z,9.70
2018-12-19T04:23:30.069Z,9.70
2018-12-19T04:25:58.984Z,9.70
2018-12-19T04:28:27.833Z,9.70
2018-12-19T04:30:56.719Z,9.70
2018-12-19T04:33:25.574Z,9.60
2018-12-19T04:35:56.050Z,9.60
2018-12-19T04:38:26.678Z,9.60
2018-12-19T04:40:55.517Z,9.60
2018-12-19T04:43:24.356Z,9.60
2018-12-19T04:45:53.192Z,9.60
2018-12-19T04:48:22.062Z,9.60
2018-12-19T04:50:50.909Z,9.60
2018-12-19T04:53:19.748Z,9.60
2018-12-19T04:55:48.595Z,9.60
2018-12-19T04:58:17.460Z,9.60
2018-12-19T05:00:46.325Z,9.60
2018-12-19T05:03:15.165Z,9.60
2018-12-19T05:05:44.012Z,9.60
2018-12-19T05:08:12.861Z,9.60
2018-12-19T05:10:41.708Z,9.60
2018-12-19T05:13:10.557Z,9.60
2018-12-19T05:15:39.410Z,9.50
2018-12-19T05:18:08.248Z,9.60
2018-12-19T05:20:37.123Z,9.50
2018-12-19T05:23:05.983Z,9.50
2018-12-19T05:25:35.317Z,9.50
2018-12-19T05:28:04.179Z,9.50
2018-12-19T05:30:34.991Z,9.50
2018-12-19T05:33:05.793Z,9.50
2018-12-19T05:35:34.723Z,9.50
2018-12-19T05:38:03.553Z,9.50
2018-12-19T05:40:32.401Z,9.50
2018-12-19T05:43:01.264Z,9.50
2018-12-19T05:45:30.092Z,9.50
2018-12-19T05:47:58.950Z,9.60
2018-12-19T05:50:29.344Z,9.70
2018-12-19T05:52:58.172Z,9.80
2018-12-19T05:55:27.020Z,9.90
2018-12-19T05:57:55.876Z,10.00
2018-12-19T06:00:24.719Z,10.00
2018-12-19T06:02:55.519Z,9.90
2018-12-19T06:05:24.365Z,9.90
2018-12-19T06:07:53.227Z,9.90
2018-12-19T06:10:26.145Z,9.80
2018-12-19T06:12:52.897Z,9.80
2018-12-19T06:15:21.737Z,9.80
2018-12-19T06:17:50.590Z,9.80
2018-12-19T06:20:19.433Z,9.80
2018-12-19T06:22:48.340Z,9.70
2018-12-19T06:25:17.273Z,9.70
2018-12-19T06:27:46.289Z,9.70
2018-12-19T06:30:16.235Z,9.70
2018-12-19T06:32:45.175Z,9.70
2018-12-19T06:35:14.041Z,9.70
2018-12-19T06:37:42.999Z,9.70
2018-12-19T06:40:11.867Z,9.70
2018-12-19T06:42:40.718Z,9.70
2018-12-19T06:45:09.565Z,9.70
2018-12-19T06:47:38.417Z,9.70
2018-12-19T06:50:09.104Z,9.70
2018-12-19T06:52:38.900Z,9.60
2018-12-19T06:55:07.750Z,9.60
2018-12-19T06:57:36.604Z,9.60
2018-12-19T07:00:07.478Z,9.60
2018-12-19T07:02:36.382Z,9.70
2018-12-19T07:05:07.213Z,9.60
2018-12-19T07:07:36.086Z,9.60
2018-12-19T07:10:05.653Z,9.60
2018-12-19T07:12:34.509Z,9.60
2018-12-19T07:15:03.376Z,9.60
2018-12-19T07:17:32.239Z,9.60
2018-12-19T07:20:01.095Z,9.60
2018-12-19T07:22:29.949Z,9.60
2018-12-19T07:24:58.808Z,9.60
2018-12-19T07:27:27.668Z,9.60
2018-12-19T07:29:56.528Z,9.60
2018-12-19T07:32:25.992Z,9.60
2018-12-19T07:34:54.852Z,9.60
2018-12-19T07:37:23.715Z,9.60
2018-12-19T07:39:52.585Z,9.60
2018-12-19T07:42:21.435Z,9.60
2018-12-19T07:44:51.160Z,9.60
2018-12-19T07:47:20.029Z,9.60
2018-12-19T07:49:48.881Z,9.60
2018-12-19T07:52:17.745Z,9.60
2018-12-19T07:54:46.604Z,9.60
2018-12-19T07:57:15.460Z,9.60
2018-12-19T07:59:44.330Z,9.50
2018-12-19T08:02:13.222Z,9.60
2018-12-19T08:04:43.763Z,9.60
2018-12-19T08:07:12.616Z,9.60
2018-12-19T08:09:41.491Z,9.50
2018-12-19T08:12:10.351Z,9.60
2018-12-19T08:14:39.220Z,9.50
2018-12-19T08:17:08.105Z,9.50
2018-12-19T08:19:36.952Z,9.50
2018-12-19T08:22:05.801Z,9.50
2018-12-19T08:24:36.624Z,9.50
2018-12-19T08:27:05.467Z,9.50
2018-12-19T08:29:34.324Z,9.50
2018-12-19T08:32:03.192Z,9.50
2018-12-19T08:34:32.088Z,9.50
2018-12-19T08:37:01.031Z,9.50
2018-12-19T08:39:31.858Z,9.50
2018-12-19T08:42:00.807Z,9.50
2018-12-19T08:44:29.665Z,9.50
2018-12-19T08:46:58.517Z,9.50
2018-12-19T08:49:27.391Z,9.50
2018-12-19T08:51:56.275Z,9.50
2018-12-19T08:54:25.165Z,9.50
2018-12-19T08:56:54.004Z,9.50
2018-12-19T08:59:22.874Z,9.50
2018-12-19T09:01:51.728Z,9.50
2018-12-19T09:04:25.745Z,9.50
2018-12-19T09:06:51.480Z,9.50
2018-12-19T09:09:20.368Z,9.50
2018-12-19T09:11:50.101Z,9.50
2018-12-19T09:14:19.552Z,9.50
2018-12-19T09:16:48.413Z,9.50
2018-12-19T09:19:17.276Z,9.50
2018-12-19T09:21:46.145Z,9.50
2018-12-19T09:24:15.029Z,9.50
2018-12-19T09:26:43.873Z,9.50
2018-12-19T09:29:12.726Z,9.50
2018-12-19T09:31:43.643Z,9.50
2018-12-19T09:34:12.524Z,9.50
2018-12-19T09:36:41.450Z,9.50
2018-12-19T09:39:10.316Z,9.50
2018-12-19T09:41:39.180Z,9.50
2018-12-19T09:44:08.686Z,9.50
2018-12-19T09:46:38.058Z,9.50
2018-12-19T09:49:12.350Z,9.50
2018-12-19T09:51:37.755Z,9.50
2018-12-19T09:54:06.601Z,9.50
2018-12-19T09:56:35.448Z,9.50
2018-12-19T09:59:04.309Z,9.50
2018-12-19T10:01:33.168Z,9.50
2018-12-19T10:04:02.008Z,9.50
2018-12-19T10:06:30.899Z,9.50
2018-12-19T10:08:59.760Z,9.60
2018-12-19T10:11:28.629Z,9.50
2018-12-19T10:13:57.507Z,9.50
2018-12-19T10:16:26.359Z,9.50
2018-12-19T10:18:55.201Z,9.50
2018-12-19T10:21:24.109Z,9.50
2018-12-19T10:23:52.998Z,9.50
2018-12-19T10:26:21.922Z,9.50
2018-12-19T10:28:50.794Z,9.50
2018-12-19T10:31:19.676Z,9.50
2018-12-19T10:33:48.574Z,9.50
2018-12-19T10:36:20.464Z,9.50
2018-12-19T10:38:49.348Z,9.50
2018-12-19T10:41:18.328Z,9.50
2018-12-19T10:43:47.192Z,9.50
2018-12-19T10:46:16.055Z,9.50
2018-12-19T10:48:44.912Z,9.50
2018-12-19T10:51:13.771Z,9.50
2018-12-19T10:53:42.628Z,9.50
2018-12-19T10:56:11.471Z,9.50
2018-12-19T10:58:40.323Z,9.50
2018-12-19T11:01:09.187Z,9.50
2018-12-19T11:03:38.033Z,9.50
2018-12-19T11:06:06.907Z,9.50
2018-12-19T11:08:35.759Z,9.50
2018-12-19T11:11:05.068Z,9.50
2018-12-19T11:13:33.911Z,9.50
2018-12-19T11:16:02.795Z,9.50
2018-12-19T11:18:31.659Z,9.50
2018-12-19T11:21:00.575Z,9.50
2018-12-19T11:23:29.439Z,9.50
2018-12-19T11:25:58.279Z,9.50
2018-12-19T11:28:27.137Z,9.50
2018-12-19T11:30:56.016Z,9.50
2018-12-19T11:33:24.860Z,9.50
2018-12-19T11:35:53.727Z,9.50
2018-12-19T11:38:22.600Z,9.50
2018-12-19T11:40:51.460Z,9.50
2018-12-19T11:43:20.316Z,9.60
2018-12-19T11:45:49.199Z,9.50
2018-12-19T11:48:19.016Z,9.60
2018-12-19T11:50:47.875Z,9.60
2018-12-19T11:53:16.765Z,9.60
2018-12-19T11:55:45.629Z,9.60
2018-12-19T11:58:14.485Z,9.60
2018-12-19T12:00:45.335Z,9.60
2018-12-19T12:03:14.184Z,9.60
2018-12-19T12:05:43.059Z,9.60
2018-12-19T12:08:11.928Z,9.60
2018-12-19T12:10:40.975Z,9.60
2018-12-19T12:13:09.836Z,9.60
2018-12-19T12:15:38.718Z,9.60
2018-12-19T12:18:07.589Z,9.60
2018-12-19T12:20:36.441Z,9.60
2018-12-19T12:23:05.344Z,9.60
2018-12-19T12:25:34.213Z,9.70
2018-12-19T12:28:03.090Z,9.70
2018-12-19T12:30:31.970Z,9.80
2018-12-19T12:33:02.830Z,9.80
2018-12-19T12:35:31.701Z,9.80
2018-12-19T12:38:00.588Z,9.80
2018-12-19T12:40:29.426Z,9.80
2018-12-19T12:42:58.286Z,9.80
2018-12-19T12:45:27.179Z,9.80
2018-12-19T12:47:56.068Z,9.80
2018-12-19T12:50:24.956Z,9.80
2018-12-19T12:52:53.824Z,9.80
2018-12-19T12:55:22.679Z,9.80
2018-12-19T12:57:51.549Z,9.80
2018-12-19T13:00:20.419Z,9.90
2018-12-19T13:02:49.335Z,9.90
2018-12-19T13:05:18.193Z,9.90
2018-12-19T13:07:47.081Z,9.90
2018-12-19T13:10:15.965Z,9.90
2018-12-19T13:12:44.821Z,9.90
2018-12-19T13:15:19.009Z,9.90
2018-12-19T13:17:48.071Z,9.90
2018-12-19T13:20:16.925Z,9.90
2018-12-19T13:22:45.801Z,9.90
2018-12-19T13:25:14.670Z,9.90
2018-12-19T13:27:43.567Z,10.00
2018-12-19T13:30:12.440Z,10.00
2018-12-19T13:32:41.336Z,10.00
2018-12-19T13:35:11.206Z,10.10
2018-12-19T13:37:40.075Z,10.10
2018-12-19T13:40:10.926Z,10.10
2018-12-19T13:42:39.903Z,10.10
2018-12-19T13:45:08.775Z,10.20
2018-12-19T13:47:37.693Z,10.20
2018-12-19T13:50:07.811Z,10.20
2018-12-19T13:52:36.687Z,10.20
2018-12-19T13:55:06.052Z,10.20
2018-12-19T13:57:34.943Z,10.30
2018-12-19T14:00:05.397Z,10.30
2018-12-19T14:02:34.302Z,10.30
2018-12-19T14:05:03.661Z,10.30
2018-12-19T14:07:32.543Z,10.30
2018-12-19T14:10:01.659Z,10.30
2018-12-19T14:12:30.545Z,10.40
2018-12-19T14:14:59.444Z,10.30
2018-12-19T14:17:28.349Z,10.40
2018-12-19T14:19:57.239Z,10.40
2018-12-19T14:22:26.213Z,10.40
2018-12-19T14:24:55.113Z,10.40
2018-12-19T14:27:24.013Z,10.40
2018-12-19T14:29:52.938Z,10.40
2018-12-19T14:32:21.930Z,10.40
2018-12-19T14:34:50.824Z,10.40
2018-12-19T14:37:19.732Z,10.40
2018-12-19T14:39:48.641Z,10.40
2018-12-19T14:42:19.133Z,10.40
2018-12-19T14:44:48.377Z,10.40
2018-12-19T14:47:17.271Z,10.40
2018-12-19T14:49:46.158Z,10.40
2018-12-19T14:52:15.045Z,10.30
2018-12-19T14:54:43.956Z,10.40
2018-12-19T14:57:13.531Z,10.40
2018-12-19T14:59:42.413Z,10.30
2018-12-19T15:02:11.323Z,10.30
2018-12-19T15:04:42.145Z,10.30
2018-12-19T15:07:11.032Z,10.30
2018-12-19T15:09:40.520Z,10.30
2018-12-19T15:12:09.420Z,10.30
2018-12-19T15:14:38.296Z,10.30
2018-12-19T15:17:13.661Z,10.30
2018-12-19T15:19:38.028Z,10.30
2018-12-19T15:22:06.931Z,10.30
2018-12-19T15:24:35.820Z,10.30
2018-12-19T15:27:04.717Z,10.30
2018-12-19T15:29:33.613Z,10.30
2018-12-19T15:32:02.497Z,10.30
2018-12-19T15:34:31.356Z,10.30
2018-12-19T15:37:00.233Z,10.30
2018-12-19T15:39:31.053Z,10.30
2018-12-19T15:41:59.948Z,10.30
2018-12-19T15:44:28.821Z,10.30
2018-12-19T15:46:57.696Z,10.30
2018-12-19T15:49:26.607Z,10.30
2018-12-19T15:51:55.490Z,10.30
2018-12-19T15:54:24.470Z,10.30
2018-12-19T15:56:53.351Z,10.30
2018-12-19T15:59:22.240Z,10.30
2018-12-19T16:01:51.112Z,10.30
2018-12-19T16:04:19.998Z,10.30
2018-12-19T16:06:48.889Z,10.30
2018-12-19T16:09:17.810Z,10.30
2018-12-19T16:11:47.581Z,10.30
2018-12-19T16:14:16.467Z,10.30
2018-12-19T16:16:45.360Z,10.30
2018-12-19T16:19:14.236Z,10.30
2018-12-19T16:21:43.117Z,10.30
2018-12-19T16:24:12.009Z,10.30
2018-12-19T16:26:40.890Z,10.30
2018-12-19T16:29:09.745Z,10.30
2018-12-19T16:31:38.638Z,10.30
2018-12-19T16:34:07.528Z,10.30
2018-12-19T16:36:36.404Z,10.30
2018-12-19T16:39:08.772Z,10.30
2018-12-19T16:41:37.642Z,10.30
2018-12-19T16:44:06.578Z,10.30
2018-12-19T16:46:35.494Z,10.30
2018-12-19T16:49:04.347Z,10.30
2018-12-19T16:51:33.317Z,10.30
2018-12-19T16:54:02.175Z,10.30
2018-12-19T16:56:31.065Z,10.30
2018-12-19T16:58:59.936Z,10.30
2018-12-19T17:01:28.819Z,10.30
2018-12-19T17:03:57.672Z,10.30
2018-12-19T17:06:26.564Z,10.30
2018-12-19T17:08:55.468Z,10.30
2018-12-19T17:11:24.348Z,10.30
2018-12-19T17:13:53.226Z,10.30
2018-12-19T17:16:22.298Z,10.30
2018-12-19T17:18:51.160Z,10.30
2018-12-19T17:21:20.072Z,10.30
2018-12-19T17:23:48.959Z,10.30
2018-12-19T17:26:17.839Z,10.30
2018-12-19T17:28:46.727Z,10.30
2018-12-19T17:31:15.617Z,10.30
2018-12-19T17:33:45.179Z,10.20
2018-12-19T17:36:14.048Z,10.30
2018-12-19T17:38:43.844Z,10.20
2018-12-19T17:41:12.724Z,10.30
2018-12-19T17:43:41.592Z,10.20
2018-12-19T17:46:10.488Z,10.20
2018-12-19T17:48:39.438Z,10.20
2018-12-19T17:51:08.312Z,10.20
2018-12-19T17:53:37.171Z,10.20
2018-12-19T17:56:06.055Z,10.20
2018-12-19T17:58:34.954Z,10.20
2018-12-19T18:01:03.850Z,10.20
2018-12-19T18:03:32.733Z,10.20
2018-12-19T18:06:01.633Z,10.20
2018-12-19T18:08:30.542Z,10.20
2018-12-19T18:10:59.429Z,10.20
2018-12-19T18:13:28.318Z,10.20
2018-12-19T18:15:57.213Z,10.20
2018-12-19T18:18:26.094Z,10.20
2018-12-19T18:20:54.996Z,10.20
2018-12-19T18:23:23.906Z,10.20
2018-12-19T18:25:52.865Z,10.20
2018-12-19T18:28:21.746Z,10.20
2018-12-19T18:30:50.641Z,10.20
2018-12-19T18:33:19.531Z,10.20
2018-12-19T18:35:48.425Z,10.20
2018-12-19T18:38:17.319Z,10.20
2018-12-19T18:40:46.223Z,10.20
2018-12-19T18:43:15.117Z,10.20
2018-12-19T18:45:44.013Z,10.20
2018-12-19T18:48:12.905Z,10.20
2018-12-19T18:50:42.026Z,10.20
2018-12-19T18:53:10.974Z,10.20
2018-12-19T18:55:39.864Z,10.20
2018-12-19T18:58:08.791Z,10.20
2018-12-19T19:00:39.078Z,10.20
2018-12-19T19:03:08.026Z,10.20
2018-12-19T19:05:37.050Z,10.10
2018-12-19T19:08:05.988Z,10.20
2018-12-19T19:10:34.934Z,10.20
2018-12-19T19:13:03.797Z,10.20
2018-12-19T19:15:32.975Z,10.20
2018-12-19T19:18:01.891Z,10.20
2018-12-19T19:22:09.160Z,10.20
2018-12-19T19:24:38.064Z,10.20
2018-12-19T19:27:06.966Z,10.20
2018-12-19T19:29:36.733Z,10.10
2018-12-19T19:32:05.641Z,10.10
2018-12-19T19:34:34.535Z,10.10
2018-12-19T19:37:03.451Z,10.10
2018-12-19T19:39:32.311Z,10.10
2018-12-19T19:42:01.192Z,10.10
2018-12-19T19:44:30.085Z,10.10
2018-12-19T19:46:58.989Z,10.10
2018-12-19T19:49:27.893Z,10.20
2018-12-19T19:51:56.764Z,10.10
2018-12-19T19:54:25.741Z,10.10
2018-12-19T19:56:54.608Z,10.10
2018-12-19T19:59:25.444Z,10.10
2018-12-19T20:01:54.498Z,10.10
2018-12-19T20:04:23.390Z,10.10
2018-12-19T20:06:59.255Z,10.10
2018-12-19T20:09:23.170Z,10.10
2018-12-19T20:11:52.048Z,10.10
2018-12-19T20:14:20.955Z,10.10
2018-12-19T20:16:55.383Z,10.10
2018-12-19T20:19:24.235Z,10.10
2018-12-19T20:21:53.116Z,10.10
2018-12-19T20:24:21.997Z,10.10
2018-12-19T20:26:50.903Z,10.10
2018-12-19T20:29:19.851Z,10.10
2018-12-19T20:31:48.851Z,10.10
2018-12-19T20:34:17.706Z,10.10
2018-12-19T20:36:46.587Z,10.10
2018-12-19T20:39:19.107Z,10.10
2018-12-19T20:41:47.957Z,10.10
2018-12-19T20:44:17.046Z,10.10
2018-12-19T20:46:45.952Z,10.20
2018-12-19T20:49:14.832Z,10.30
2018-12-19T20:51:43.800Z,10.40
2018-12-19T20:54:12.699Z,10.40
2018-12-19T20:56:41.569Z,10.50
2018-12-19T20:59:10.516Z,10.50
2018-12-19T21:01:39.425Z,10.50
2018-12-19T21:04:08.287Z,10.50
2018-12-19T21:06:37.169Z,10.50
2018-12-19T21:09:07.506Z,10.40
2018-12-19T21:11:36.410Z,10.40
2018-12-19T21:14:05.268Z,10.30
2018-12-19T21:16:39.461Z,10.40
2018-12-19T21:19:08.326Z,10.30
2018-12-19T21:21:37.163Z,10.30
2018-12-19T21:24:06.052Z,10.30
2018-12-19T21:26:34.933Z,10.30
2018-12-19T21:29:04.785Z,10.30
2018-12-19T21:31:34.252Z,10.30
2018-12-19T21:34:03.102Z,10.30
2018-12-19T21:36:31.948Z,10.30
2018-12-19T21:39:00.811Z,10.30
2018-12-19T21:41:29.659Z,10.30
2018-12-19T21:43:58.561Z,10.30
2018-12-19T21:46:27.459Z,10.30
2018-12-19T21:48:56.345Z,10.30
2018-12-19T21:51:25.221Z,10.30
2018-12-19T21:53:54.065Z,10.30
2018-12-19T21:56:22.976Z,10.20
2018-12-19T21:58:51.816Z,10.20
2018-12-19T22:01:20.723Z,10.20
2018-12-19T22:03:49.640Z,10.20
2018-12-19T22:06:18.590Z,10.20
2018-12-19T22:08:47.472Z,10.20
2018-12-19T22:11:16.383Z,10.20
2018-12-19T22:13:45.321Z,10.20
2018-12-19T22:16:19.762Z,10.20
2018-12-19T22:18:48.719Z,10.20
2018-12-19T22:21:18.229Z,10.20
2018-12-19T22:23:47.092Z,10.20
2018-12-19T22:26:16.049Z,10.20
2018-12-19T22:28:44.908Z,10.20
2018-12-19T22:31:13.814Z,10.20
2018-12-19T22:33:42.682Z,10.20
2018-12-19T22:36:11.606Z,10.20
2018-12-19T22:38:40.464Z,10.20
2018-12-19T22:41:09.681Z,10.20
2018-12-19T22:43:38.593Z,10.20
2018-12-19T22:46:07.448Z,10.20
2018-12-19T22:48:37.051Z,10.20
2018-12-19T22:51:05.932Z,10.20
2018-12-19T22:53:34.948Z,10.20
2018-12-19T22:56:03.781Z,10.20
2018-12-19T22:58:32.645Z,10.20
2018-12-19T23:01:06.914Z,10.20
2018-12-19T23:03:41.330Z,10.10
2018-12-19T23:06:10.162Z,10.10
2018-12-19T23:08:39.003Z,10.10
2018-12-19T23:11:07.928Z,10.10
2018-12-19T23:13:37.178Z,10.10
2018-12-19T23:16:05.652Z,10.20
2018-12-19T23:18:40.315Z,10.30
2018-12-19T23:21:14.682Z,10.40
2018-12-19T23:23:49.217Z,10.40
2018-12-19T23:26:20.009Z,10.50
2018-12-19T23:28:53.041Z,10.60
2018-12-19T23:31:21.924Z,10.50
2018-12-19T23:33:51.022Z,10.50
2018-12-19T23:36:19.887Z,10.40
2018-12-19T23:38:48.977Z,10.40
2018-12-19T23:41:17.910Z,10.40
2018-12-19T23:43:46.856Z,10.40
2018-12-19T23:46:15.738Z,10.40
2018-12-19T23:48:44.612Z,10.40
2018-12-19T23:51:13.476Z,10.30
2018-12-19T23:53:42.339Z,10.30
